Time;durP1;ratioP1;P1;durP2;ratioP2;P2;SDS_P1;SDS_P2;PMS_P1;PMS_P2;Temp;Humidity;BMP_temperature;BMP_pressure;BME280_temperature;BME280_humidity;BME280_pressure;Samples;Min_cycle;Max_cycle;Signal;HPM_P1;HPM_P2
2021/11/20 00:00:01;;;;;;;;;;;;;;;;;;353332;27;822;-74
2021/11/20 00:00:15;;;;;;;;;;;;;;;;;;352795;28;1158;-74
2021/11/20 00:00:29;;;;;;;;;;;;;;;;;;352901;28;1039;-76
2021/11/20 00:00:40;;;;;;;;;;;;;;;;;;351377;28;1447;-73
2021/11/20 00:00:52;;;;;;;;;;;;;;;;;;351445;28;920;-75
2021/11/20 00:01:06;;;;;;;;;;;;;;;;;;351406;28;1429;-73
2021/11/20 00:01:17;;;;;;;;;;;;;;;;;;352840;28;896;-74
2021/11/20 00:01:27;;;;;;;;;;;;;;;;;;352840;28;995;-74
2021/11/20 00:01:39;;;;;;;;;;;;;;;;;;352824;28;912;-73
2021/11/20 00:01:50;;;;;;;;;;;;;;;;;;352834;28;976;-74
2021/11/20 00:02:01;;;;;;;;;;;;;;;;;;351344;28;912;-75
2021/11/20 00:02:17;;;;;;;;;;;;;;;;;;352603;28;904;-75
2021/11/20 00:02:28;;;;;;;;;;;;;;;;;;351434;28;880;-74
2021/11/20 00:02:39;;;;;;;;;;;;;;;;;;352624;28;912;-74
2021/11/20 00:02:50;;;;;;;;;;;;;;;;;;352815;28;778;-74
2021/11/20 00:03:01;;;;;;;;;;;;;;;;;;351365;28;1299;-76
2021/11/20 00:03:12;;;;;;;;;;;;;;;;;;351303;28;1409;-75
2021/11/20 00:03:23;;;;;;;;;;;;;;;;;;351440;28;913;-75
2021/11/20 00:03:34;;;;;;;;;;;;;;;;;;351441;28;1031;-74
2021/11/20 00:03:45;;;;;;;;;;;;;;;;;;350772;28;1420;-74
2021/11/20 00:03:56;;;;;;;;;;;;;;;;;;350534;28;951;-75
2021/11/20 00:04:48;;;;;;;;;;;;;;;;;;348553;28;946;-74
2021/11/20 00:04:59;;;;;;;;;;;;;;;;;;349955;28;1153;-74
2021/11/20 00:05:10;;;;;;;;;;;;;;;;;;349955;28;1171;-74
2021/11/20 00:05:23;;;;;;;;;;;;;;;;;;350011;28;979;-73
2021/11/20 00:05:35;;;;;;;;;;;;;;;;;;350086;28;817;-73
2021/11/20 00:05:48;;;;;;;;;;;;;;;;;;351409;28;979;-76
2021/11/20 00:05:58;;;;;;;;;;;;;;;;;;351452;28;893;-74
2021/11/20 00:06:09;;;;;;;;;;;;;;;;;;352734;28;864;-74
2021/11/20 00:06:21;;;;;;;;;;;;;;;;;;352905;28;1019;-74
2021/11/20 00:06:34;;;;;;;;;;;;;;;;;;352771;28;849;-74
2021/11/20 00:06:46;;;;;;;;;;;;;;;;;;352862;28;857;-75
2021/11/20 00:07:00;;;;;;;;;;;;;;;;;;352795;28;895;-75
2021/11/20 00:07:11;;;;;;;;;;;;;;;;;;354137;27;813;-74
2021/11/20 00:07:22;;;;;;;;;;;;;;;;;;352884;28;1006;-74
2021/11/20 00:07:48;;;;;;;;;;;;;;;;;;352842;28;967;-74
2021/11/20 00:08:00;;;;;;;;;;;;;;;;;;352854;28;860;-74
2021/11/20 00:08:11;;;;;;;;;;;;;;;;;;352832;28;928;-74
2021/11/20 00:08:22;;;;;;;;;;;;;;;;;;352795;28;826;-75
2021/11/20 00:08:32;;;;;;;;;;;;;;;;;;352725;28;968;-74
2021/11/20 00:09:10;;;;;;;;;;;;;;;;;;352788;28;897;-74
2021/11/20 00:09:22;;;;;;;;;;;;;;;;;;352843;28;813;-74
2021/11/20 00:09:58;;;;;;;;;;;;;;;;;;352715;28;1312;-74
2021/11/20 00:10:10;;;;;;;;;;;;;;;;;;352831;28;1162;-74
2021/11/20 00:10:22;;;;;;;;;;;;;;;;;;352843;28;931;-74
2021/11/20 00:10:34;;;;;;;;;;;;;;;;;;353927;27;996;-74
2021/11/20 00:11:06;;;;;;;;;;;;;;;;;;354158;27;1055;-75
2021/11/20 00:11:17;;;;;;;;;;;;;;;;;;352918;28;864;-74
2021/11/20 00:11:29;;;;;;;;;;;;;;;;;;352796;28;979;-74
2021/11/20 00:11:40;;;;;;;;;;;;;;;;;;352853;28;904;-74
2021/11/20 00:11:52;;;;;;;;;;;;;;;;;;352642;28;797;-74
2021/11/20 00:12:05;;;;;;;;;;;;;;;;;;351353;28;988;-74
2021/11/20 00:12:24;;;;;;;;;;;;;;;;;;351382;28;964;-74
2021/11/20 00:12:35;;;;;;;;;;;;;;;;;;351288;28;965;-75
2021/11/20 00:12:46;;;;;;;;;;;;;;;;;;348618;28;913;-74
2021/11/20 00:12:56;;;;;;;;;;;;;;;;;;349954;28;861;-75
2021/11/20 00:13:08;;;;;;;;;;;;;;;;;;350049;28;869;-74
2021/11/20 00:13:21;;;;;;;;;;;;;;;;;;351426;28;881;-74
2021/11/20 00:13:32;;;;;;;;;;;;;;;;;;351446;28;822;-74
2021/11/20 00:14:11;;;;;;;;;;;;;;;;;;351419;28;913;-75
2021/11/20 00:14:22;;;;;;;;;;;;;;;;;;351495;28;798;-75
2021/11/20 00:14:32;;;;;;;;;;;;;;;;;;351332;28;1038;-74
2021/11/20 00:14:58;;;;;;;;;;;;;;;;;;351473;28;837;-73
2021/11/20 00:15:11;;;;;;;;;;;;;;;;;;349962;28;980;-74
2021/11/20 00:15:24;;;;;;;;;;;;;;;;;;350089;28;932;-74
2021/11/20 00:15:50;;;;;;;;;;;;;;;;;;350156;28;861;-74
2021/11/20 00:16:02;;;;;;;;;;;;;;;;;;350116;28;905;-75
2021/11/20 00:16:13;;;;;;;;;;;;;;;;;;351403;28;968;-74
2021/11/20 00:16:24;;;;;;;;;;;;;;;;;;351485;28;841;-74
2021/11/20 00:16:35;;;;;;;;;;;;;;;;;;351318;28;972;-74
2021/11/20 00:16:46;;;;;;;;;;;;;;;;;;349912;28;1321;-77
2021/11/20 00:16:57;;;;;;;;;;;;;;;;;;348664;28;933;-74
2021/11/20 00:17:08;;;;;;;;;;;;;;;;;;348582;28;1577;-75
2021/11/20 00:17:45;;;;;;;;;;;;;;;;;;348656;28;806;-75
2021/11/20 00:17:56;;;;;;;;;;;;;;;;;;348715;28;892;-74
2021/11/20 00:18:07;;;;;;;;;;;;;;;;;;348614;28;850;-71
2021/11/20 00:18:18;;;;;;;;;;;;;;;;;;347172;28;1348;-71
2021/11/20 00:18:30;;;;;;;;;;;;;;;;;;347022;28;1553;-72
2021/11/20 00:18:41;;;;;;;;;;;;;;;;;;347236;28;814;-71
2021/11/20 00:19:19;;;;;;;;;;;;;;;;;;348730;28;876;-75
2021/11/20 00:19:57;;;;;;;;;;;;;;;;;;348681;28;514;-74
2021/11/20 00:20:09;;;;;;;;;;;;;;;;;;348590;28;912;-74
2021/11/20 00:20:20;;;;;;;;;;;;;;;;;;348642;28;1008;-75
2021/11/20 00:20:32;;;;;;;;;;;;;;;;;;349914;28;873;-74
2021/11/20 00:20:53;;;;;;;;;;;;;;;;;;351321;28;1560;-74
2021/11/20 00:21:05;;;;;;;;;;;;;;;;;;351399;28;810;-74
2021/11/20 00:21:20;;;;;;;;;;;;;;;;;;351411;28;841;-75
2021/11/20 00:21:33;;;;;;;;;;;;;;;;;;351442;28;802;-76
2021/11/20 00:21:49;;;;;;;;;;;;;;;;;;349846;28;822;-74
2021/11/20 00:22:05;;;;;;;;;;;;;;;;;;348627;28;1020;-75
2021/11/20 00:22:20;;;;;;;;;;;;;;;;;;349282;28;1015;-74
2021/11/20 00:22:59;;;;;;;;;;;;;;;;;;348631;28;961;-75
2021/11/20 00:23:30;;;;;;;;;;;;;;;;;;348692;28;580;-74
2021/11/20 00:23:42;;;;;;;;;;;;;;;;;;349310;28;943;-74
2021/11/20 00:23:56;;;;;;;;;;;;;;;;;;349949;28;892;-75
2021/11/20 00:24:19;;;;;;;;;;;;;;;;;;350106;28;893;-74
2021/11/20 00:24:31;;;;;;;;;;;;;;;;;;350049;28;984;-74
2021/11/20 00:24:44;;;;;;;;;;;;;;;;;;350125;28;951;-75
2021/11/20 00:25:27;;;;;;;;;;;;;;;;;;350131;28;965;-74
2021/11/20 00:25:45;;;;;;;;;;;;;;;;;;350185;28;989;-74
2021/11/20 00:25:57;;;;;;;;;;;;;;;;;;350131;28;921;-74
2021/11/20 00:26:09;;;;;;;;;;;;;;;;;;350044;28;802;-74
2021/11/20 00:26:21;;;;;;;;;;;;;;;;;;350092;28;1003;-74
2021/11/20 00:26:35;;;;;;;;;;;;;;;;;;350045;28;849;-75
2021/11/20 00:26:45;;;;;;;;;;;;;;;;;;350098;28;975;-74
2021/11/20 00:26:56;;;;;;;;;;;;;;;;;;350130;28;809;-74
2021/11/20 00:27:16;;;;;;;;;;;;;;;;;;350060;28;1015;-74
2021/11/20 00:27:32;;;;;;;;;;;;;;;;;;350019;28;833;-75
2021/11/20 00:27:43;;;;;;;;;;;;;;;;;;350117;28;913;-74
2021/11/20 00:27:54;;;;;;;;;;;;;;;;;;350097;28;912;-74
2021/11/20 00:28:04;;;;;;;;;;;;;;;;;;351424;28;928;-74
2021/11/20 00:28:19;;;;;;;;;;;;;;;;;;351367;28;860;-74
2021/11/20 00:29:20;;;;;;;;;;;;;;;;;;351355;28;976;-74
2021/11/20 00:30:14;;;;;;;;;;;;;;;;;;348566;28;932;-74
2021/11/20 00:30:28;;;;;;;;;;;;;;;;;;348570;28;861;-75
2021/11/20 00:30:41;;;;;;;;;;;;;;;;;;351394;28;1031;-74
2021/11/20 00:30:41;;;;;;;;;;;;;;;;;;349565;28;1113;-73
2021/11/20 00:30:57;;;;;;;;;;;;;;;;;;350140;28;1035;-74
2021/11/20 00:31:13;;;;;;;;;;;;;;;;;;350060;28;975;-74
2021/11/20 00:31:44;;;;;;;;;;;;;;;;;;350165;28;912;-73
2021/11/20 00:31:59;;;;;;;;;;;;;;;;;;348545;28;1020;-71
2021/11/20 00:32:11;;;;;;;;;;;;;;;;;;348559;28;980;-72
2021/11/20 00:32:26;;;;;;;;;;;;;;;;;;348598;28;948;-72
2021/11/20 00:32:39;;;;;;;;;;;;;;;;;;348383;28;798;-72
2021/11/20 00:33:23;;;;;;;;;;;;;;;;;;348575;28;1020;-73
2021/11/20 00:33:36;;;;;;;;;;;;;;;;;;348613;28;822;-72
2021/11/20 00:33:53;;;;;;;;;;;;;;;;;;348587;28;1063;-72
2021/11/20 00:34:19;;;;;;;;;;;;;;;;;;348621;28;909;-72
2021/11/20 00:34:31;;;;;;;;;;;;;;;;;;348479;28;929;-72
2021/11/20 00:34:43;;;;;;;;;;;;;;;;;;348484;28;956;-71
2021/11/20 00:34:56;;;;;;;;;;;;;;;;;;348565;28;1055;-72
2021/11/20 00:35:09;;;;;;;;;;;;;;;;;;348532;28;850;-72
2021/11/20 00:35:22;;;;;;;;;;;;;;;;;;348521;28;964;-71
2021/11/20 00:35:37;;;;;;;;;;;;;;;;;;348586;28;973;-73
2021/11/20 00:35:49;;;;;;;;;;;;;;;;;;348513;28;977;-72
2021/11/20 00:36:18;;;;;;;;;;;;;;;;;;348516;28;920;-72
2021/11/20 00:36:28;;;;;;;;;;;;;;;;;;348470;28;960;-74
2021/11/20 00:36:39;;;;;;;;;;;;;;;;;;348578;28;945;-72
2021/11/20 00:36:59;;;;;;;;;;;;;;;;;;348510;28;818;-71
2021/11/20 00:37:10;;;;;;;;;;;;;;;;;;348634;28;857;-71
2021/11/20 00:37:21;;;;;;;;;;;;;;;;;;348516;28;985;-71
2021/11/20 00:37:31;;;;;;;;;;;;;;;;;;348521;28;1005;-72
2021/11/20 00:38:23;;;;;;;;;;;;;;;;;;348502;28;996;-71
2021/11/20 00:38:34;;;;;;;;;;;;;;;;;;348062;28;977;-72
2021/11/20 00:38:45;;;;;;;;;;;;;;;;;;347153;28;1914;-71
2021/11/20 00:38:55;;;;;;;;;;;;;;;;;;347209;28;953;-71
2021/11/20 00:39:08;;;;;;;;;;;;;;;;;;347700;28;964;-71
2021/11/20 00:39:19;;;;;;;;;;;;;;;;;;348559;28;1135;-71
2021/11/20 00:39:31;;;;;;;;;;;;;;;;;;348470;28;872;-73
2021/11/20 00:39:41;;;;;;;;;;;;;;;;;;348560;28;933;-72
2021/11/20 00:40:10;;;;;;;;;;;;;;;;;;348581;28;968;-71
2021/11/20 00:40:27;;;;;;;;;;;;;;;;;;347158;28;834;-71
2021/11/20 00:40:53;;;;;;;;;;;;;;;;;;347133;28;924;-72
2021/11/20 00:41:12;;;;;;;;;;;;;;;;;;347222;28;968;-73
2021/11/20 00:41:25;;;;;;;;;;;;;;;;;;347166;28;854;-73
2021/11/20 00:41:36;;;;;;;;;;;;;;;;;;347237;28;913;-72
2021/11/20 00:41:46;;;;;;;;;;;;;;;;;;346997;28;926;-71
2021/11/20 00:41:57;;;;;;;;;;;;;;;;;;347101;28;838;-72
2021/11/20 00:42:35;;;;;;;;;;;;;;;;;;348536;28;866;-72
2021/11/20 00:42:45;;;;;;;;;;;;;;;;;;348494;28;909;-72
2021/11/20 00:42:56;;;;;;;;;;;;;;;;;;348412;28;885;-72
2021/11/20 00:43:06;;;;;;;;;;;;;;;;;;348597;28;787;-72
2021/11/20 00:43:18;;;;;;;;;;;;;;;;;;348611;28;845;-71
2021/11/20 00:43:44;;;;;;;;;;;;;;;;;;348575;28;841;-72
2021/11/20 00:43:55;;;;;;;;;;;;;;;;;;348451;28;890;-72
2021/11/20 00:44:06;;;;;;;;;;;;;;;;;;347055;28;1536;-72
2021/11/20 00:44:17;;;;;;;;;;;;;;;;;;347200;28;830;-72
2021/11/20 00:44:28;;;;;;;;;;;;;;;;;;347024;28;1062;-72
2021/11/20 00:44:38;;;;;;;;;;;;;;;;;;347121;28;969;-73
2021/11/20 00:44:49;;;;;;;;;;;;;;;;;;347236;28;992;-73
2021/11/20 00:44:59;;;;;;;;;;;;;;;;;;347213;28;901;-73
2021/11/20 00:45:10;;;;;;;;;;;;;;;;;;347181;28;944;-72
2021/11/20 00:45:47;;;;;;;;;;;;;;;;;;347160;28;964;-72
2021/11/20 00:46:18;;;;;;;;;;;;;;;;;;347278;28;914;-71
2021/11/20 00:46:30;;;;;;;;;;;;;;;;;;341666;29;1161;-72
2021/11/20 00:46:41;;;;;;;;;;;;;;;;;;341739;29;858;-73
2021/11/20 00:46:52;;;;;;;;;;;;;;;;;;341734;29;1128;-72
2021/11/20 00:47:03;;;;;;;;;;;;;;;;;;341805;29;839;-72
2021/11/20 00:47:14;;;;;;;;;;;;;;;;;;341791;29;930;-72
2021/11/20 00:47:40;;;;;;;;;;;;;;;;;;341773;29;969;-71
2021/11/20 00:48:36;;;;;;;;;;;;;;;;;;337722;29;1160;-71
2021/11/20 00:48:47;;;;;;;;;;;;;;;;;;341757;29;934;-72
2021/11/20 00:48:58;;;;;;;;;;;;;;;;;;341855;29;760;-72
2021/11/20 00:49:36;;;;;;;;;;;;;;;;;;341828;29;985;-72
2021/11/20 00:49:49;;;;;;;;;;;;;;;;;;340426;29;1154;-72
2021/11/20 00:50:01;;;;;;;;;;;;;;;;;;340494;29;917;-72
2021/11/20 00:50:27;;;;;;;;;;;;;;;;;;340456;29;910;-72
2021/11/20 00:50:40;;;;;;;;;;;;;;;;;;340344;29;839;-72
2021/11/20 00:50:52;;;;;;;;;;;;;;;;;;340470;29;939;-72
2021/11/20 00:51:05;;;;;;;;;;;;;;;;;;340357;29;1458;-72
2021/11/20 00:51:17;;;;;;;;;;;;;;;;;;340468;29;981;-72
2021/11/20 00:51:28;;;;;;;;;;;;;;;;;;340447;29;1024;-71
2021/11/20 00:51:39;;;;;;;;;;;;;;;;;;340502;29;965;-71
2021/11/20 00:51:49;;;;;;;;;;;;;;;;;;341771;29;926;-72
2021/11/20 00:52:09;;;;;;;;;;;;;;;;;;341871;29;839;-72
2021/11/20 00:52:19;;;;;;;;;;;;;;;;;;341777;29;985;-72
2021/11/20 00:52:29;;;;;;;;;;;;;;;;;;345289;28;1048;-72
2021/11/20 00:52:44;;;;;;;;;;;;;;;;;;347197;28;1097;-72
2021/11/20 00:52:54;;;;;;;;;;;;;;;;;;347063;28;834;-73
2021/11/20 00:53:05;;;;;;;;;;;;;;;;;;346994;28;1035;-71
2021/11/20 00:53:31;;;;;;;;;;;;;;;;;;348380;28;814;-73
2021/11/20 00:53:42;;;;;;;;;;;;;;;;;;348581;28;925;-72
2021/11/20 00:54:11;;;;;;;;;;;;;;;;;;348589;28;573;-72
2021/11/20 00:54:22;;;;;;;;;;;;;;;;;;348558;28;913;-72
2021/11/20 00:54:33;;;;;;;;;;;;;;;;;;348417;28;985;-72
2021/11/20 00:54:44;;;;;;;;;;;;;;;;;;348616;28;972;-71
2021/11/20 00:54:54;;;;;;;;;;;;;;;;;;348562;28;842;-71
2021/11/20 00:55:05;;;;;;;;;;;;;;;;;;348402;28;802;-72
2021/11/20 00:55:17;;;;;;;;;;;;;;;;;;348498;28;976;-71
2021/11/20 00:55:28;;;;;;;;;;;;;;;;;;348599;28;775;-71
2021/11/20 00:55:38;;;;;;;;;;;;;;;;;;348600;28;838;-72
2021/11/20 00:55:49;;;;;;;;;;;;;;;;;;348583;28;853;-72
2021/11/20 00:56:00;;;;;;;;;;;;;;;;;;348533;28;829;-72
2021/11/20 00:56:12;;;;;;;;;;;;;;;;;;348507;28;904;-73
2021/11/20 00:56:24;;;;;;;;;;;;;;;;;;348491;28;956;-71
2021/11/20 00:56:35;;;;;;;;;;;;;;;;;;348445;28;853;-72
2021/11/20 00:57:00;;;;;;;;;;;;;;;;;;348555;28;821;-71
2021/11/20 00:57:15;;;;;;;;;;;;;;;;;;348515;28;916;-72
2021/11/20 00:57:25;;;;;;;;;;;;;;;;;;348562;28;973;-71
2021/11/20 00:57:56;;;;;;;;;;;;;;;;;;348497;28;862;-71
2021/11/20 00:58:06;;;;;;;;;;;;;;;;;;345636;28;1120;-72
2021/11/20 00:58:17;;;;;;;;;;;;;;;;;;345618;28;1191;-71
2021/11/20 00:58:28;;;;;;;;;;;;;;;;;;347508;28;1110;-72
2021/11/20 00:58:39;;;;;;;;;;;;;;;;;;348483;28;933;-72
2021/11/20 00:58:50;;;;;;;;;;;;;;;;;;347115;28;1879;-72
2021/11/20 00:59:00;;;;;;;;;;;;;;;;;;347089;28;1414;-73
2021/11/20 00:59:11;;;;;;;;;;;;;;;;;;347214;28;897;-71
2021/11/20 00:59:22;;;;;;;;;;;;;;;;;;347219;28;934;-72
2021/11/20 00:59:33;;;;;;;;;;;;;;;;;;347139;28;881;-71
2021/11/20 00:59:43;;;;;;;;;;;;;;;;;;347111;28;985;-71
2021/11/20 00:59:54;;;;;;;;;;;;;;;;;;345844;28;822;-71
2021/11/20 01:00:06;;;;;;;;;;;;;;;;;;345800;28;858;-72
2021/11/20 01:00:17;;;;;;;;;;;;;;;;;;345758;28;1400;-72
2021/11/20 01:00:31;;;;;;;;;;;;;;;;;;345767;28;877;-72
2021/11/20 01:00:44;;;;;;;;;;;;;;;;;;345982;28;494;-72
2021/11/20 01:00:59;;;;;;;;;;;;;;;;;;346789;28;964;-71
2021/11/20 01:01:54;;;;;;;;;;;;;;;;;;345787;28;965;-71
2021/11/20 01:02:05;;;;;;;;;;;;;;;;;;347180;28;1063;-71
2021/11/20 01:02:16;;;;;;;;;;;;;;;;;;348209;28;1057;-71
2021/11/20 01:02:26;;;;;;;;;;;;;;;;;;348604;28;973;-72
2021/11/20 01:02:37;;;;;;;;;;;;;;;;;;348475;28;876;-71
2021/11/20 01:02:47;;;;;;;;;;;;;;;;;;348539;28;865;-73
2021/11/20 01:02:58;;;;;;;;;;;;;;;;;;348516;28;1047;-72
2021/11/20 01:03:09;;;;;;;;;;;;;;;;;;348532;28;909;-71
2021/11/20 01:03:20;;;;;;;;;;;;;;;;;;348432;28;1033;-72
2021/11/20 01:03:31;;;;;;;;;;;;;;;;;;348470;28;957;-72
2021/11/20 01:03:57;;;;;;;;;;;;;;;;;;348380;28;965;-72
2021/11/20 01:04:07;;;;;;;;;;;;;;;;;;348362;28;877;-71
2021/11/20 01:04:19;;;;;;;;;;;;;;;;;;348546;28;984;-72
2021/11/20 01:04:30;;;;;;;;;;;;;;;;;;348442;28;1010;-72
2021/11/20 01:04:40;;;;;;;;;;;;;;;;;;348507;28;857;-71
2021/11/20 01:04:51;;;;;;;;;;;;;;;;;;348574;28;882;-72
2021/11/20 01:05:22;;;;;;;;;;;;;;;;;;344383;28;1051;-73
2021/11/20 01:06:02;;;;;;;;;;;;;;;;;;347177;28;1036;-73
2021/11/20 01:06:12;;;;;;;;;;;;;;;;;;347039;28;995;-72
2021/11/20 01:06:27;;;;;;;;;;;;;;;;;;347116;28;984;-72
2021/11/20 01:06:39;;;;;;;;;;;;;;;;;;347150;28;779;-72
2021/11/20 01:06:51;;;;;;;;;;;;;;;;;;347154;28;882;-71
2021/11/20 01:07:01;;;;;;;;;;;;;;;;;;348330;28;893;-72
2021/11/20 01:07:12;;;;;;;;;;;;;;;;;;348565;28;1031;-72
2021/11/20 01:07:48;;;;;;;;;;;;;;;;;;348579;28;857;-72
2021/11/20 01:07:59;;;;;;;;;;;;;;;;;;348557;28;889;-71
2021/11/20 01:08:11;;;;;;;;;;;;;;;;;;348549;28;977;-72
2021/11/20 01:08:23;;;;;;;;;;;;;;;;;;348325;28;874;-71
2021/11/20 01:08:35;;;;;;;;;;;;;;;;;;348401;28;810;-72
2021/11/20 01:08:46;;;;;;;;;;;;;;;;;;348588;28;977;-72
2021/11/20 01:08:58;;;;;;;;;;;;;;;;;;348582;28;826;-73
2021/11/20 01:09:08;;;;;;;;;;;;;;;;;;348530;28;1723;-72
2021/11/20 01:09:24;;;;;;;;;;;;;;;;;;348565;28;912;-72
2021/11/20 01:09:37;;;;;;;;;;;;;;;;;;348522;28;881;-71
2021/11/20 01:09:47;;;;;;;;;;;;;;;;;;348559;28;814;-71
2021/11/20 01:10:24;;;;;;;;;;;;;;;;;;352556;28;1478;-71
2021/11/20 01:10:36;;;;;;;;;;;;;;;;;;352511;28;912;-72
2021/11/20 01:10:49;;;;;;;;;;;;;;;;;;352681;28;1024;-72
2021/11/20 01:11:01;;;;;;;;;;;;;;;;;;352774;28;912;-72
2021/11/20 01:11:46;;;;;;;;;;;;;;;;;;351345;28;818;-71
2021/11/20 01:12:07;;;;;;;;;;;;;;;;;;351327;28;975;-72
2021/11/20 01:12:20;;;;;;;;;;;;;;;;;;350916;28;988;-72
2021/11/20 01:12:31;;;;;;;;;;;;;;;;;;349799;28;1049;-72
2021/11/20 01:12:53;;;;;;;;;;;;;;;;;;351736;28;1384;-72
2021/11/20 01:13:05;;;;;;;;;;;;;;;;;;352718;28;964;-72
2021/11/20 01:13:15;;;;;;;;;;;;;;;;;;352779;28;802;-73
2021/11/20 01:13:27;;;;;;;;;;;;;;;;;;352662;28;968;-72
2021/11/20 01:13:43;;;;;;;;;;;;;;;;;;352643;28;1218;-71
2021/11/20 01:13:54;;;;;;;;;;;;;;;;;;352744;28;928;-72
2021/11/20 01:14:06;;;;;;;;;;;;;;;;;;352673;28;972;-72
2021/11/20 01:14:33;;;;;;;;;;;;;;;;;;352802;28;972;-72
2021/11/20 01:14:44;;;;;;;;;;;;;;;;;;352947;28;940;-73
2021/11/20 01:14:55;;;;;;;;;;;;;;;;;;352917;28;845;-72
2021/11/20 01:15:21;;;;;;;;;;;;;;;;;;352764;28;919;-72
2021/11/20 01:15:53;;;;;;;;;;;;;;;;;;352826;28;857;-71
2021/11/20 01:16:23;;;;;;;;;;;;;;;;;;352924;28;659;-71
2021/11/20 01:16:34;;;;;;;;;;;;;;;;;;352773;28;1054;-72
2021/11/20 01:16:45;;;;;;;;;;;;;;;;;;352928;28;923;-73
2021/11/20 01:16:56;;;;;;;;;;;;;;;;;;352967;28;841;-71
2021/11/20 01:17:26;;;;;;;;;;;;;;;;;;352942;28;579;-72
2021/11/20 01:17:37;;;;;;;;;;;;;;;;;;352778;28;849;-71
2021/11/20 01:17:48;;;;;;;;;;;;;;;;;;352800;28;912;-72
2021/11/20 01:17:58;;;;;;;;;;;;;;;;;;352802;28;817;-72
2021/11/20 01:18:09;;;;;;;;;;;;;;;;;;352680;28;861;-72
2021/11/20 01:18:21;;;;;;;;;;;;;;;;;;352824;28;809;-71
2021/11/20 01:18:32;;;;;;;;;;;;;;;;;;352605;28;895;-72
2021/11/20 01:18:43;;;;;;;;;;;;;;;;;;351263;28;852;-72
2021/11/20 01:18:55;;;;;;;;;;;;;;;;;;351266;28;1981;-71
2021/11/20 01:19:05;;;;;;;;;;;;;;;;;;351320;28;1005;-72
2021/11/20 01:19:16;;;;;;;;;;;;;;;;;;351246;28;975;-71
2021/11/20 01:19:53;;;;;;;;;;;;;;;;;;352701;28;991;-71
2021/11/20 01:20:08;;;;;;;;;;;;;;;;;;352724;28;777;-72
2021/11/20 01:20:18;;;;;;;;;;;;;;;;;;352708;28;825;-72
2021/11/20 01:20:59;;;;;;;;;;;;;;;;;;352636;28;1184;-72
2021/11/20 01:21:10;;;;;;;;;;;;;;;;;;351382;28;818;-72
2021/11/20 01:21:21;;;;;;;;;;;;;;;;;;351316;28;789;-72
2021/11/20 01:21:32;;;;;;;;;;;;;;;;;;352645;28;1237;-71
2021/11/20 01:21:43;;;;;;;;;;;;;;;;;;352601;28;971;-72
2021/11/20 01:22:21;;;;;;;;;;;;;;;;;;351360;28;956;-72
2021/11/20 01:22:31;;;;;;;;;;;;;;;;;;351196;28;904;-71
2021/11/20 01:22:57;;;;;;;;;;;;;;;;;;351377;28;853;-72
2021/11/20 01:23:08;;;;;;;;;;;;;;;;;;352351;28;814;-72
2021/11/20 01:23:34;;;;;;;;;;;;;;;;;;352766;28;967;-72
2021/11/20 01:24:11;;;;;;;;;;;;;;;;;;352780;28;794;-71
2021/11/20 01:24:22;;;;;;;;;;;;;;;;;;352787;28;986;-73
2021/11/20 01:24:32;;;;;;;;;;;;;;;;;;352658;28;789;-72
2021/11/20 01:24:43;;;;;;;;;;;;;;;;;;352728;28;996;-72
2021/11/20 01:24:55;;;;;;;;;;;;;;;;;;352766;28;785;-71
2021/11/20 01:25:06;;;;;;;;;;;;;;;;;;352703;28;964;-72
2021/11/20 01:26:28;;;;;;;;;;;;;;;;;;352749;28;1026;-72
2021/11/20 01:26:39;;;;;;;;;;;;;;;;;;352871;28;903;-72
2021/11/20 01:26:49;;;;;;;;;;;;;;;;;;352675;28;948;-72
2021/11/20 01:27:53;;;;;;;;;;;;;;;;;;354050;27;944;-71
2021/11/20 01:28:04;;;;;;;;;;;;;;;;;;354144;27;963;-73
2021/11/20 01:28:16;;;;;;;;;;;;;;;;;;354145;27;884;-72
2021/11/20 01:28:28;;;;;;;;;;;;;;;;;;353956;27;1039;-72
2021/11/20 01:28:40;;;;;;;;;;;;;;;;;;354099;27;921;-72
2021/11/20 01:28:52;;;;;;;;;;;;;;;;;;355385;27;789;-72
2021/11/20 01:29:03;;;;;;;;;;;;;;;;;;355515;27;916;-71
2021/11/20 01:29:15;;;;;;;;;;;;;;;;;;354168;27;824;-71
2021/11/20 01:29:26;;;;;;;;;;;;;;;;;;353009;28;1038;-71
2021/11/20 01:29:37;;;;;;;;;;;;;;;;;;352670;28;877;-72
2021/11/20 01:29:47;;;;;;;;;;;;;;;;;;352644;28;1245;-73
2021/11/20 01:29:58;;;;;;;;;;;;;;;;;;352725;28;959;-72
2021/11/20 01:30:10;;;;;;;;;;;;;;;;;;352714;28;880;-72
2021/11/20 01:30:21;;;;;;;;;;;;;;;;;;352706;28;860;-71
2021/11/20 01:30:31;;;;;;;;;;;;;;;;;;352651;28;852;-71
2021/11/20 01:30:42;;;;;;;;;;;;;;;;;;352679;28;940;-71
2021/11/20 01:31:13;;;;;;;;;;;;;;;;;;352797;28;789;-72
2021/11/20 01:31:25;;;;;;;;;;;;;;;;;;347102;28;987;-71
2021/11/20 01:31:36;;;;;;;;;;;;;;;;;;347117;28;982;-71
2021/11/20 01:31:54;;;;;;;;;;;;;;;;;;347126;28;966;-71
2021/11/20 01:32:31;;;;;;;;;;;;;;;;;;348332;28;976;-71
2021/11/20 01:32:41;;;;;;;;;;;;;;;;;;348457;28;905;-71
2021/11/20 01:32:51;;;;;;;;;;;;;;;;;;348390;28;948;-72
2021/11/20 01:33:02;;;;;;;;;;;;;;;;;;348491;28;1023;-72
2021/11/20 01:33:12;;;;;;;;;;;;;;;;;;348470;28;790;-71
2021/11/20 01:33:23;;;;;;;;;;;;;;;;;;348427;28;944;-72
2021/11/20 01:33:34;;;;;;;;;;;;;;;;;;348485;28;1070;-71
2021/11/20 01:33:45;;;;;;;;;;;;;;;;;;348513;28;1055;-72
2021/11/20 01:33:56;;;;;;;;;;;;;;;;;;348337;28;953;-73
2021/11/20 01:34:07;;;;;;;;;;;;;;;;;;348369;28;1001;-72
2021/11/20 01:34:18;;;;;;;;;;;;;;;;;;348496;28;845;-71
2021/11/20 01:34:29;;;;;;;;;;;;;;;;;;348357;28;984;-72
2021/11/20 01:34:39;;;;;;;;;;;;;;;;;;347023;28;711;-73
2021/11/20 01:34:50;;;;;;;;;;;;;;;;;;347115;28;837;-72
2021/11/20 01:35:00;;;;;;;;;;;;;;;;;;347045;28;854;-71
2021/11/20 01:35:11;;;;;;;;;;;;;;;;;;347085;28;909;-71
2021/11/20 01:35:21;;;;;;;;;;;;;;;;;;347177;28;794;-73
2021/11/20 01:35:32;;;;;;;;;;;;;;;;;;347055;28;913;-72
2021/11/20 01:35:42;;;;;;;;;;;;;;;;;;347079;28;1032;-73
2021/11/20 01:35:56;;;;;;;;;;;;;;;;;;347168;28;920;-71
2021/11/20 01:36:07;;;;;;;;;;;;;;;;;;347086;28;941;-72
2021/11/20 01:36:20;;;;;;;;;;;;;;;;;;347133;28;909;-72
2021/11/20 01:36:32;;;;;;;;;;;;;;;;;;347033;28;908;-72
2021/11/20 01:36:43;;;;;;;;;;;;;;;;;;348510;28;1024;-73
2021/11/20 01:36:55;;;;;;;;;;;;;;;;;;348442;28;1020;-72
2021/11/20 01:37:07;;;;;;;;;;;;;;;;;;345590;28;1423;-72
2021/11/20 01:37:19;;;;;;;;;;;;;;;;;;345627;28;1068;-72
2021/11/20 01:37:29;;;;;;;;;;;;;;;;;;345773;28;862;-72
2021/11/20 01:37:43;;;;;;;;;;;;;;;;;;345688;28;921;-72
2021/11/20 01:37:54;;;;;;;;;;;;;;;;;;345819;28;803;-71
2021/11/20 01:38:05;;;;;;;;;;;;;;;;;;345755;28;976;-71
2021/11/20 01:38:16;;;;;;;;;;;;;;;;;;344179;28;1312;-71
2021/11/20 01:38:27;;;;;;;;;;;;;;;;;;344378;28;945;-71
2021/11/20 01:38:38;;;;;;;;;;;;;;;;;;344388;28;708;-71
2021/11/20 01:38:49;;;;;;;;;;;;;;;;;;344290;28;1974;-72
2021/11/20 01:39:00;;;;;;;;;;;;;;;;;;344914;28;815;-72
2021/11/20 01:39:13;;;;;;;;;;;;;;;;;;347017;28;902;-71
2021/11/20 01:39:26;;;;;;;;;;;;;;;;;;347097;28;818;-72
2021/11/20 01:39:37;;;;;;;;;;;;;;;;;;347014;28;1478;-71
2021/11/20 01:41:02;;;;;;;;;;;;;;;;;;348473;28;890;-72
2021/11/20 01:41:40;;;;;;;;;;;;;;;;;;348487;28;790;-71
2021/11/20 01:42:23;;;;;;;;;;;;;;;;;;348531;28;1035;-71
2021/11/20 01:42:33;;;;;;;;;;;;;;;;;;344301;28;1312;-72
2021/11/20 01:42:44;;;;;;;;;;;;;;;;;;344155;28;1323;-71
2021/11/20 01:42:55;;;;;;;;;;;;;;;;;;344418;28;799;-72
2021/11/20 01:43:35;;;;;;;;;;;;;;;;;;344352;28;1008;-72
2021/11/20 01:43:52;;;;;;;;;;;;;;;;;;344311;28;998;-73
2021/11/20 01:44:18;;;;;;;;;;;;;;;;;;348363;28;940;-71
2021/11/20 01:44:55;;;;;;;;;;;;;;;;;;348399;28;826;-72
2021/11/20 01:45:05;;;;;;;;;;;;;;;;;;344528;28;1159;-71
2021/11/20 01:45:52;;;;;;;;;;;;;;;;;;348520;28;873;-72
2021/11/20 01:46:07;;;;;;;;;;;;;;;;;;348514;28;885;-73
2021/11/20 01:46:20;;;;;;;;;;;;;;;;;;348402;28;1007;-72
2021/11/20 01:46:30;;;;;;;;;;;;;;;;;;348369;28;995;-72
2021/11/20 01:46:55;;;;;;;;;;;;;;;;;;348454;28;924;-73
2021/11/20 01:47:08;;;;;;;;;;;;;;;;;;348488;28;857;-72
2021/11/20 01:47:33;;;;;;;;;;;;;;;;;;348492;28;873;-72
2021/11/20 01:47:47;;;;;;;;;;;;;;;;;;348473;28;798;-72
2021/11/20 01:48:23;;;;;;;;;;;;;;;;;;348459;28;884;-72
2021/11/20 01:48:39;;;;;;;;;;;;;;;;;;348303;28;988;-72
2021/11/20 01:48:50;;;;;;;;;;;;;;;;;;348466;28;846;-71
2021/11/20 01:49:09;;;;;;;;;;;;;;;;;;345657;28;854;-72
2021/11/20 01:49:29;;;;;;;;;;;;;;;;;;345548;28;851;-72
2021/11/20 01:49:41;;;;;;;;;;;;;;;;;;345677;28;878;-72
2021/11/20 01:50:12;;;;;;;;;;;;;;;;;;345705;28;1035;-71
2021/11/20 01:50:31;;;;;;;;;;;;;;;;;;345767;28;1038;-71
2021/11/20 01:50:42;;;;;;;;;;;;;;;;;;345661;28;1023;-74
2021/11/20 01:51:00;;;;;;;;;;;;;;;;;;345899;28;964;-72
2021/11/20 01:51:32;;;;;;;;;;;;;;;;;;348505;28;964;-72
2021/11/20 01:51:46;;;;;;;;;;;;;;;;;;348489;28;1000;-72
2021/11/20 01:52:12;;;;;;;;;;;;;;;;;;348539;28;1024;-72
2021/11/20 01:52:41;;;;;;;;;;;;;;;;;;348484;28;826;-71
2021/11/20 01:53:11;;;;;;;;;;;;;;;;;;348311;28;842;-72
2021/11/20 01:53:35;;;;;;;;;;;;;;;;;;348079;28;1242;-72
2021/11/20 01:54:05;;;;;;;;;;;;;;;;;;348463;28;849;-71
2021/11/20 01:54:21;;;;;;;;;;;;;;;;;;348296;28;928;-72
2021/11/20 01:54:36;;;;;;;;;;;;;;;;;;348298;28;901;-73
2021/11/20 01:54:52;;;;;;;;;;;;;;;;;;348471;28;1012;-72
2021/11/20 01:55:08;;;;;;;;;;;;;;;;;;348359;28;810;-71
2021/11/20 01:55:27;;;;;;;;;;;;;;;;;;348423;28;956;-72
2021/11/20 01:55:39;;;;;;;;;;;;;;;;;;348497;28;861;-72
2021/11/20 01:55:52;;;;;;;;;;;;;;;;;;348504;28;908;-72